createdAt,value
2023-05-21T00:00:16.183Z,51.803571
2023-05-21T00:05:15.717Z,51.668310
2023-05-21T00:10:15.715Z,51.390141
2023-05-21T00:15:16.210Z,51.219286
2023-05-21T00:20:16.397Z,50.535211
2023-05-21T00:25:17.321Z,49.360714
2023-05-21T00:30:16.291Z,48.962411
2023-05-21T00:35:16.579Z,48.196479
2023-05-21T00:40:16.178Z,48.255319
2023-05-21T00:45:16.034Z,48.931915
2023-05-21T00:50:15.821Z,48.783688
2023-05-21T00:55:16.826Z,53.170922
2023-05-21T01:00:15.836Z,53.605674
2023-05-21T01:05:16.448Z,52.491489
2023-05-21T01:10:15.939Z,52.307092
2023-05-21T01:15:16.792Z,49.771127
2023-05-21T01:20:16.505Z,49.595745
2023-05-21T01:25:16.428Z,49.513475
2023-05-21T01:30:16.855Z,49.522695
2023-05-21T01:35:15.714Z,49.835915
2023-05-21T01:40:16.019Z,50.248936
2023-05-21T01:45:16.410Z,49.903521
2023-05-21T01:50:16.278Z,51.330282
2023-05-21T01:55:16.091Z,49.576224
2023-05-21T02:00:16.421Z,50.719014
2023-05-21T02:05:16.231Z,50.649650
2023-05-21T02:10:16.071Z,51.406993
2023-05-21T02:15:16.832Z,52.385417
2023-05-21T02:20:16.186Z,52.216552
2023-05-21T02:25:16.778Z,51.446897
2023-05-21T02:30:16.087Z,52.131034
2023-05-21T02:35:16.013Z,53.069444
2023-05-21T02:40:16.124Z,53.223776
2023-05-21T02:45:15.946Z,53.549645
2023-05-21T02:50:16.392Z,53.779577
2023-05-21T02:55:16.365Z,54.119149
2023-05-21T03:00:16.563Z,54.580282
2023-05-21T03:05:15.924Z,55.315493
2023-05-21T03:10:16.752Z,56.566667
2023-05-21T03:15:16.665Z,56.868794
2023-05-21T03:20:16.313Z,58.184507
2023-05-21T03:25:16.196Z,59.720567
2023-05-21T03:30:16.003Z,59.714085
2023-05-21T03:35:15.793Z,59.939716
2023-05-21T03:40:15.891Z,60.407692
2023-05-21T03:45:15.825Z,60.860284
2023-05-21T03:50:15.860Z,61.302837
2023-05-21T03:55:16.828Z,61.629787
2023-05-21T04:00:15.665Z,62.164085
2023-05-21T04:05:16.933Z,62.376923
2023-05-21T04:10:16.111Z,62.495833
2023-05-21T04:15:16.155Z,62.937500
2023-05-21T04:20:16.450Z,62.674126
2023-05-21T04:25:15.783Z,62.262937
2023-05-21T04:30:15.984Z,62.460140
2023-05-21T04:35:15.901Z,62.911888
2023-05-21T04:40:16.213Z,63.232867
2023-05-21T04:45:16.978Z,63.171329
2023-05-21T04:50:16.224Z,63.279577
2023-05-21T04:55:16.211Z,63.207746
2023-05-21T05:00:16.568Z,63.183099
2023-05-21T05:05:16.316Z,63.331206
2023-05-21T05:10:16.470Z,63.620000
2023-05-21T05:15:16.142Z,64.803571
2023-05-21T05:20:16.454Z,64.934286
2023-05-21T05:25:16.770Z,64.912766
2023-05-21T05:30:16.108Z,65.284286
2023-05-21T05:35:16.256Z,66.505674
2023-05-21T05:40:15.989Z,67.592199
2023-05-21T05:45:16.000Z,68.019858
2023-05-21T05:50:15.921Z,67.760284
2023-05-21T05:55:15.797Z,68.120567
2023-05-21T06:00:15.855Z,68.080282
2023-05-21T06:05:16.614Z,68.836879
2023-05-21T06:10:16.374Z,68.669718
2023-05-21T06:15:16.083Z,68.025352
2023-05-21T06:20:15.783Z,68.201408
2023-05-21T06:25:16.244Z,68.318310
2023-05-21T06:30:15.948Z,69.077622
2023-05-21T06:35:16.687Z,70.264789
2023-05-21T06:40:16.518Z,69.043357
2023-05-21T06:45:16.247Z,68.445775
2023-05-21T06:50:15.933Z,67.976596
2023-05-21T06:55:15.904Z,68.912676
2023-05-21T07:00:16.021Z,68.255634
2023-05-21T07:05:16.081Z,68.502113
2023-05-21T07:10:16.195Z,69.255944
2023-05-21T07:15:16.302Z,69.355862
2023-05-21T07:20:16.842Z,70.093706
2023-05-21T07:25:16.070Z,70.428472
2023-05-21T07:30:16.395Z,70.616783
2023-05-21T07:35:15.954Z,71.059028
2023-05-21T07:40:16.887Z,71.038462
2023-05-21T07:45:15.817Z,70.613986
2023-05-21T07:50:16.046Z,70.679861
2023-05-21T07:55:15.872Z,70.499306
2023-05-21T08:00:16.704Z,70.489655
2023-05-21T08:05:15.764Z,71.493750
2023-05-21T08:10:18.488Z,70.920833
2023-05-21T08:15:16.391Z,70.513889
2023-05-21T08:20:16.080Z,70.196552
2023-05-21T08:25:16.612Z,69.981944
2023-05-21T08:30:16.184Z,70.728671
2023-05-21T08:35:16.613Z,73.157639
2023-05-21T08:40:15.892Z,72.890345
2023-05-21T08:45:15.879Z,72.725517
2023-05-21T08:50:15.969Z,72.087500
2023-05-21T08:55:16.016Z,71.903497
2023-05-21T09:00:16.258Z,72.166667
2023-05-21T09:05:15.993Z,72.460563
2023-05-21T09:10:16.490Z,72.968794
2023-05-21T09:15:16.786Z,74.298592
2023-05-21T09:20:16.315Z,75.327660
2023-05-21T09:25:16.882Z,76.358156
2023-05-21T09:30:16.201Z,77.740845
2023-05-21T09:35:16.521Z,78.611348
2023-05-21T09:40:16.095Z,78.739716
2023-05-21T09:45:15.905Z,79.714894
2023-05-21T09:50:15.868Z,79.955944
2023-05-21T09:55:16.278Z,79.822535
2023-05-21T10:00:15.998Z,79.920280
2023-05-21T10:05:16.329Z,79.473103
2023-05-21T10:10:16.037Z,79.500000
2023-05-21T10:15:16.057Z,79.791724
2023-05-21T10:20:16.687Z,79.952448
2023-05-21T10:25:16.924Z,79.653472
2023-05-21T10:30:16.990Z,80.119858
2023-05-21T10:35:16.301Z,80.434043
2023-05-21T10:40:16.613Z,79.927465
2023-05-21T10:45:16.422Z,79.375887
2023-05-21T10:50:16.058Z,79.678723
2023-05-21T10:55:16.556Z,79.528571
2023-05-21T11:00:16.153Z,79.760993
2023-05-21T11:05:16.690Z,80.647183
2023-05-21T11:10:16.504Z,80.936111
2023-05-21T11:15:16.318Z,80.567133
2023-05-21T11:20:16.924Z,80.650000
2023-05-21T11:25:16.263Z,80.217021
2023-05-21T11:30:16.079Z,80.130282
2023-05-21T11:35:16.363Z,79.234507
2023-05-21T11:40:15.730Z,79.917021
2023-05-21T11:45:16.728Z,80.272340
2023-05-21T11:50:16.209Z,80.373427
2023-05-21T11:55:15.883Z,80.151748
2023-05-21T12:00:15.814Z,79.332867
2023-05-21T12:05:16.825Z,79.565734
2023-05-21T12:10:15.719Z,79.679720
2023-05-21T12:15:16.132Z,79.538298
2023-05-21T12:20:16.964Z,79.822535
2023-05-21T12:25:16.384Z,79.456028
2023-05-21T12:30:16.704Z,79.100714
2023-05-21T12:35:16.110Z,79.381560
2023-05-21T12:40:15.753Z,79.657143
2023-05-21T12:45:16.523Z,79.258451
2023-05-21T12:50:16.093Z,79.065714
2023-05-21T12:55:16.128Z,79.424113
2023-05-21T13:00:16.214Z,79.473944
2023-05-21T13:05:15.982Z,79.274648
2023-05-21T13:10:16.315Z,79.704965
2023-05-21T13:15:16.558Z,79.592199
2023-05-21T13:20:16.234Z,79.344681
2023-05-21T13:25:16.605Z,79.319858
2023-05-21T13:30:15.772Z,78.746099
2023-05-21T13:35:16.935Z,78.750000
2023-05-21T13:40:16.658Z,78.622535
2023-05-21T13:45:15.770Z,77.591608
2023-05-21T13:50:17.028Z,78.753901
2023-05-21T13:55:16.206Z,79.705634
2023-05-21T14:00:16.931Z,80.374306
2023-05-21T14:05:16.349Z,79.860417
2023-05-21T14:10:15.811Z,79.860839
2023-05-21T14:15:16.106Z,79.898592
2023-05-21T14:20:16.385Z,79.692958
2023-05-21T14:25:16.854Z,80.090909
2023-05-21T14:30:16.325Z,79.909155
2023-05-21T14:35:15.955Z,78.691608
2023-05-21T14:40:16.578Z,79.234965
2023-05-21T14:45:18.576Z,79.931250
2023-05-21T14:50:15.805Z,79.629167
2023-05-21T14:55:16.447Z,79.154167
2023-05-21T15:00:17.313Z,80.043662
2023-05-21T15:05:16.480Z,79.911348
2023-05-21T15:10:18.680Z,79.409155
2023-05-21T15:15:16.252Z,79.595745
2023-05-21T15:20:15.962Z,79.118182
2023-05-21T15:25:15.939Z,78.314894
2023-05-21T15:30:16.366Z,78.993662
2023-05-21T15:35:17.315Z,79.425532
2023-05-21T15:40:15.910Z,80.006338
2023-05-21T15:45:16.913Z,78.842553
2023-05-21T15:50:16.059Z,80.044056
2023-05-21T15:55:16.551Z,79.754167
2023-05-21T16:00:16.038Z,79.679861
2023-05-21T16:05:16.019Z,78.858741
2023-05-21T16:10:16.901Z,78.816667
2023-05-21T16:15:16.505Z,79.221831
2023-05-21T16:20:15.856Z,79.384507
2023-05-21T16:25:16.108Z,79.093793
2023-05-21T16:30:15.717Z,78.881507
2023-05-21T16:35:15.968Z,77.826712
2023-05-21T16:40:16.609Z,76.490476
2023-05-21T16:45:15.985Z,75.464583
2023-05-21T16:50:16.369Z,75.426573
2023-05-21T16:55:16.362Z,76.696528
2023-05-21T17:00:16.786Z,78.109155
2023-05-21T17:05:16.433Z,78.286014
2023-05-21T17:10:16.631Z,77.796479
2023-05-21T17:15:17.067Z,77.459722
2023-05-21T17:20:15.916Z,77.440972
2023-05-21T17:25:16.271Z,77.511806
2023-05-21T17:30:15.913Z,77.469231
2023-05-21T17:35:16.408Z,77.082069
2023-05-21T17:40:16.218Z,77.256552
2023-05-21T17:45:16.224Z,78.005556
2023-05-21T17:50:16.600Z,78.154861
2023-05-21T17:55:16.200Z,77.797917
2023-05-21T18:00:15.882Z,76.892308
2023-05-21T18:05:16.288Z,76.930070
2023-05-21T18:10:15.938Z,77.265734
2023-05-21T18:15:15.872Z,77.465248
2023-05-21T18:20:15.948Z,76.576596
2023-05-21T18:25:15.952Z,77.228169
2023-05-21T18:30:16.095Z,77.245455
2023-05-21T18:35:16.918Z,76.649306
2023-05-21T18:40:17.289Z,76.770629
2023-05-21T18:45:16.707Z,76.733333
2023-05-21T18:50:17.004Z,75.627465
2023-05-21T18:55:17.469Z,73.945070
2023-05-21T19:00:16.642Z,73.567133
2023-05-21T19:05:16.107Z,72.681818
2023-05-21T19:10:16.376Z,72.614685
2023-05-21T19:15:16.052Z,73.721678
2023-05-21T19:20:16.854Z,73.563194
2023-05-21T19:25:16.836Z,73.198592
2023-05-21T19:30:15.802Z,72.782639
2023-05-21T19:35:15.815Z,73.484507
2023-05-21T19:40:16.329Z,73.696503
2023-05-21T19:45:17.615Z,73.621678
2023-05-21T19:50:16.031Z,73.908451
2023-05-21T19:55:16.156Z,72.997902
2023-05-21T20:00:16.014Z,73.185315
2023-05-21T20:05:15.731Z,72.727972
2023-05-21T20:10:16.046Z,73.333803
2023-05-21T20:15:15.828Z,73.566901
2023-05-21T20:20:16.590Z,72.767606
2023-05-21T20:25:16.817Z,71.989437
2023-05-21T20:30:16.019Z,71.685915
2023-05-21T20:35:17.268Z,71.136170
2023-05-21T20:40:15.771Z,71.306338
2023-05-21T20:45:16.010Z,71.778169
2023-05-21T20:50:17.177Z,71.356738
2023-05-21T20:55:17.536Z,71.549296
2023-05-21T21:00:16.504Z,71.778873
2023-05-21T21:05:15.894Z,70.850704
2023-05-21T21:10:15.883Z,71.178169
2023-05-21T21:15:16.241Z,71.132394
2023-05-21T21:20:15.840Z,70.660839
2023-05-21T21:25:16.588Z,71.866434
2023-05-21T21:30:16.116Z,71.350350
2023-05-21T21:35:16.066Z,72.267376
2023-05-21T21:40:16.815Z,73.031915
2023-05-21T21:45:15.929Z,72.549645
2023-05-21T21:50:15.786Z,72.270714
2023-05-21T21:55:16.297Z,72.121429
2023-05-21T22:00:16.219Z,71.697872
2023-05-21T22:05:16.327Z,72.140426
2023-05-21T22:10:16.186Z,72.380282
2023-05-21T22:15:15.988Z,72.191489
2023-05-21T22:20:16.606Z,72.648592
2023-05-21T22:25:16.137Z,72.850000
2023-05-21T22:30:17.293Z,72.614583
2023-05-21T22:35:16.231Z,72.031469
2023-05-21T22:40:16.439Z,71.622378
2023-05-21T22:45:15.808Z,71.661702
2023-05-21T22:50:16.184Z,70.317730
2023-05-21T22:55:17.576Z,70.419858
2023-05-21T23:00:16.188Z,69.938298
2023-05-21T23:05:16.885Z,68.364539
2023-05-21T23:10:15.965Z,68.597887
2023-05-21T23:15:16.217Z,68.659155
2023-05-21T23:20:16.714Z,68.129787
2023-05-21T23:25:16.098Z,67.938028
2023-05-21T23:30:16.358Z,67.529577
2023-05-21T23:35:16.041Z,67.034266
2023-05-21T23:40:15.936Z,66.689437
2023-05-21T23:45:16.116Z,66.248227
2023-05-21T23:50:16.418Z,71.287143
2023-05-21T23:55:16.074Z,76.197887
